Crystal, Nevada
Current Conditions -  °F | °C
As of 1:02 PM on Thursday 18 Dec 2014 (Local Time) from KDRA Reporting Station
Overcast Overcast  
Wind Chill:   Ceiling: 3300
Heat Index:   Visibility: 10mi
Dew Point:   Wind: 8mph
Humidity: 66%   Direction: 240°WSW
Pressure: 30.13"   Gusts: NA
Location:  36.2552°N, 116.039°W
Report Text: KDRA 182102Z AUTO 24007KT 10SM SCT026 BKN033 OVC050 09/03 A3013 RMK AO2 T00940033
Loading
Personal Weather Stations






























Interactive Weather Map New forecast layout! Learn more

10-Day Weather Forecast

Advertisements
Track Severe Weather on mobile